createdAt,value
2019-03-10T00:02:17.835Z,12.13
2019-03-10T00:04:44.883Z,9.10
2019-03-10T00:07:12.958Z,7.53
2019-03-10T00:09:40.010Z,10.13
2019-03-10T00:12:07.053Z,8.80
2019-03-10T00:14:34.208Z,10.23
2019-03-10T00:17:01.260Z,9.30
2019-03-10T00:19:28.308Z,9.70
2019-03-10T00:21:55.555Z,12.83
2019-03-10T00:24:22.610Z,8.80
2019-03-10T00:26:49.654Z,11.37
2019-03-10T00:29:18.139Z,13.70
2019-03-10T00:31:45.183Z,8.57
2019-03-10T00:34:12.231Z,6.97
2019-03-10T00:36:39.840Z,10.30
2019-03-10T00:39:07.865Z,6.30
2019-03-10T00:41:35.941Z,7.07
2019-03-10T00:44:04.830Z,8.97
2019-03-10T00:46:33.618Z,7.77
2019-03-10T00:49:06.504Z,7.30
2019-03-10T00:51:42.362Z,10.27
2019-03-10T00:54:10.847Z,10.30
2019-03-10T00:56:37.889Z,12.63
2019-03-10T00:59:07.395Z,8.60
2019-03-10T01:01:35.163Z,12.83
2019-03-10T01:04:02.216Z,9.03
2019-03-10T01:06:29.259Z,9.43
2019-03-10T01:08:56.307Z,7.30
2019-03-10T01:11:28.987Z,10.23
2019-03-10T01:13:56.043Z,10.20
2019-03-10T01:16:23.084Z,8.20
2019-03-10T01:18:50.133Z,10.10
2019-03-10T01:21:17.188Z,9.60
2019-03-10T01:23:44.436Z,7.63
2019-03-10T01:26:11.488Z,5.23
2019-03-10T01:28:38.532Z,5.40
2019-03-10T01:31:05.594Z,8.23
2019-03-10T01:33:38.362Z,11.90
2019-03-10T01:36:05.417Z,8.07
2019-03-10T01:38:32.773Z,3.33
2019-03-10T01:40:59.816Z,6.40
2019-03-10T01:43:26.864Z,7.53
2019-03-10T01:45:53.919Z,6.80
2019-03-10T01:48:20.961Z,8.00
2019-03-10T01:50:48.010Z,9.50
2019-03-10T01:53:25.008Z,6.83
2019-03-10T01:55:42.414Z,11.23
2019-03-10T01:58:09.463Z,5.23
2019-03-10T02:00:36.519Z,9.03
2019-03-10T02:03:03.975Z,5.37
2019-03-10T02:05:31.019Z,8.20
2019-03-10T02:07:58.066Z,5.73
2019-03-10T02:10:26.753Z,9.23
2019-03-10T02:12:53.807Z,12.47
2019-03-10T02:15:20.851Z,6.23
2019-03-10T02:17:49.539Z,7.30
2019-03-10T02:20:16.589Z,6.17
2019-03-10T02:22:43.640Z,8.53
2019-03-10T02:25:11.098Z,4.93
2019-03-10T02:27:38.147Z,8.77
2019-03-10T02:30:05.195Z,5.27
2019-03-10T02:32:32.246Z,5.30
2019-03-10T02:34:59.289Z,5.40
2019-03-10T02:37:27.568Z,9.33
2019-03-10T02:39:54.620Z,7.73
2019-03-10T02:42:21.624Z,3.37
2019-03-10T02:44:48.615Z,8.73
2019-03-10T02:47:15.657Z,8.03
2019-03-10T02:49:42.705Z,7.13
2019-03-10T02:52:09.763Z,4.93
2019-03-10T02:54:36.814Z,11.47
2019-03-10T02:57:03.854Z,7.60
2019-03-10T02:59:32.027Z,6.97
2019-03-10T03:01:59.075Z,9.07
2019-03-10T03:04:26.130Z,4.80
2019-03-10T03:06:58.199Z,10.10
2019-03-10T03:09:25.240Z,14.37
2019-03-10T03:11:52.301Z,9.80
2019-03-10T03:14:19.372Z,7.03
2019-03-10T03:16:49.071Z,5.37
2019-03-10T03:19:16.036Z,6.57
2019-03-10T03:21:43.949Z,6.00
2019-03-10T03:24:10.192Z,9.20
2019-03-10T03:26:39.088Z,5.23
2019-03-10T03:29:07.520Z,4.93
2019-03-10T03:31:39.018Z,5.93
2019-03-10T03:34:06.073Z,9.37
2019-03-10T03:36:33.117Z,7.27
2019-03-10T03:39:06.409Z,5.67
2019-03-10T03:41:34.994Z,5.43
2019-03-10T03:44:02.094Z,7.43
2019-03-10T03:46:30.740Z,6.17
2019-03-10T03:48:57.783Z,6.60
2019-03-10T03:51:24.828Z,7.03
2019-03-10T03:53:53.313Z,8.77
2019-03-10T03:56:20.447Z,6.30
2019-03-10T03:58:47.457Z,10.13
2019-03-10T04:01:18.609Z,5.30
2019-03-10T04:03:45.608Z,5.57
2019-03-10T04:06:13.058Z,5.77
2019-03-10T04:08:40.105Z,10.57
2019-03-10T04:11:11.161Z,8.57
2019-03-10T04:13:38.201Z,7.00
2019-03-10T04:16:05.249Z,4.23
2019-03-10T04:18:32.298Z,3.97
2019-03-10T04:20:59.353Z,5.33
2019-03-10T04:23:26.390Z,4.00
2019-03-10T04:25:53.444Z,10.50
2019-03-10T04:28:20.487Z,5.13
2019-03-10T04:30:47.537Z,8.10
2019-03-10T04:33:14.590Z,7.53
2019-03-10T04:35:41.634Z,6.27
2019-03-10T04:38:10.268Z,11.87
2019-03-10T04:40:37.471Z,3.87
2019-03-10T04:43:24.603Z,6.27
2019-03-10T04:45:51.640Z,7.77
2019-03-10T04:48:18.695Z,3.80
2019-03-10T04:50:45.736Z,6.00
2019-03-10T04:53:13.193Z,3.00
2019-03-10T04:55:53.145Z,6.73
2019-03-10T04:58:20.199Z,6.43
2019-03-10T05:00:47.242Z,4.73
2019-03-10T05:03:14.291Z,4.40
2019-03-10T05:05:41.344Z,7.23
2019-03-10T05:08:08.386Z,4.77
2019-03-10T05:10:35.439Z,5.50
2019-03-10T05:13:02.498Z,6.20
2019-03-10T05:15:29.951Z,3.40
2019-03-10T05:17:57.018Z,4.27
2019-03-10T05:20:24.039Z,7.50
2019-03-10T05:22:51.094Z,5.37
2019-03-10T05:25:18.249Z,5.97
2019-03-10T05:27:45.292Z,4.80
2019-03-10T05:30:12.309Z,6.80
2019-03-10T05:32:39.236Z,3.73
2019-03-10T05:35:06.240Z,4.40
2019-03-10T05:37:33.285Z,3.63
2019-03-10T05:40:02.169Z,12.33
2019-03-10T05:42:29.243Z,6.57
2019-03-10T05:44:56.267Z,6.57
2019-03-10T05:47:24.591Z,6.77
2019-03-10T05:49:51.597Z,4.97
2019-03-10T05:52:18.642Z,8.33
2019-03-10T05:55:04.895Z,8.43
2019-03-10T05:57:31.890Z,10.27
2019-03-10T05:59:58.944Z,6.03
2019-03-10T06:02:25.884Z,7.43
2019-03-10T06:04:52.934Z,18.40
2019-03-10T06:07:19.983Z,13.27
2019-03-10T06:09:48.870Z,7.47
2019-03-10T06:12:15.927Z,8.87
2019-03-10T06:14:42.967Z,6.80
2019-03-10T06:17:10.016Z,2.80
2019-03-10T06:19:37.006Z,4.40
2019-03-10T06:22:17.904Z,10.20
2019-03-10T06:24:44.889Z,1.07
2019-03-10T06:27:11.932Z,1.53
2019-03-10T06:29:38.983Z,9.57
2019-03-10T06:32:06.034Z,6.63
2019-03-10T06:34:33.076Z,0.77
2019-03-10T06:37:00.067Z,0.90
2019-03-10T06:39:27.071Z,3.30
2019-03-10T06:41:54.120Z,2.07
2019-03-10T06:44:21.482Z,0.80
2019-03-10T06:46:50.060Z,2.87
2019-03-10T06:49:17.263Z,2.17
2019-03-10T06:51:45.283Z,1.17
2019-03-10T06:54:12.332Z,6.47
2019-03-10T06:56:58.417Z,9.43
2019-03-10T06:59:37.547Z,2.33
2019-03-10T07:02:04.608Z,5.57
2019-03-10T07:04:31.660Z,6.40
2019-03-10T07:06:59.116Z,4.10
2019-03-10T07:09:26.170Z,4.13
2019-03-10T07:11:53.212Z,5.80
2019-03-10T07:14:20.260Z,5.40
2019-03-10T07:16:47.313Z,1.80
2019-03-10T07:19:14.357Z,7.43
2019-03-10T07:21:43.094Z,2.57
2019-03-10T07:24:10.094Z,3.03
2019-03-10T07:26:37.089Z,10.90
2019-03-10T07:29:04.805Z,7.73
2019-03-10T07:31:31.852Z,8.13
2019-03-10T07:34:13.749Z,8.97
2019-03-10T07:36:55.645Z,10.33
2019-03-10T07:39:32.730Z,5.70
2019-03-10T07:42:07.362Z,14.90
2019-03-10T07:44:36.248Z,8.43
2019-03-10T07:47:19.887Z,5.57
2019-03-10T07:49:48.785Z,9.70
2019-03-10T07:52:26.581Z,8.43
2019-03-10T07:54:59.260Z,13.07
2019-03-10T07:57:36.241Z,15.07
2019-03-10T08:00:21.107Z,14.73
2019-03-10T08:02:48.975Z,15.67
2019-03-10T08:05:16.741Z,13.80
2019-03-10T08:07:59.666Z,15.80
2019-03-10T08:10:29.581Z,13.27
2019-03-10T08:13:06.661Z,5.63
2019-03-10T08:15:39.443Z,3.77
2019-03-10T08:18:11.003Z,15.07
2019-03-10T08:20:43.884Z,18.83
2019-03-10T08:23:11.548Z,8.77
2019-03-10T08:25:40.540Z,11.90
2019-03-10T08:28:17.467Z,19.37
2019-03-10T08:30:45.497Z,14.17
2019-03-10T08:33:14.587Z,7.90
2019-03-10T08:35:56.484Z,5.13
2019-03-10T08:38:39.099Z,18.97
2019-03-10T08:41:27.139Z,26.60
2019-03-10T08:44:00.025Z,28.00
2019-03-10T08:46:47.862Z,27.67
2019-03-10T08:49:32.732Z,29.90
2019-03-10T08:52:02.546Z,25.90
2019-03-10T08:54:31.203Z,38.47
2019-03-10T08:57:15.072Z,29.63
2019-03-10T08:59:46.013Z,32.07
2019-03-10T09:02:13.885Z,32.10
2019-03-10T09:04:42.052Z,27.70
2019-03-10T09:07:23.992Z,27.53
2019-03-10T09:09:51.447Z,31.33
2019-03-10T09:12:19.213Z,37.28
2019-03-10T09:14:48.209Z,37.95
2019-03-10T09:17:19.016Z,41.95
2019-03-10T09:22:28.612Z,42.50
2019-03-10T09:25:01.601Z,37.70
2019-03-10T09:27:36.128Z,38.85
2019-03-10T09:30:22.108Z,34.33
2019-03-10T09:32:55.400Z,38.13
2019-03-10T09:35:24.394Z,38.70
2019-03-10T09:37:57.596Z,39.95
2019-03-10T09:40:25.666Z,36.80
2019-03-10T09:52:39.059Z,38.70
2019-03-10T09:55:08.880Z,33.45
2019-03-10T09:57:40.531Z,35.58
2019-03-10T10:00:23.348Z,32.60
2019-03-10T10:03:07.040Z,38.08
2019-03-10T10:05:38.514Z,37.97
2019-03-10T10:08:06.357Z,35.92
2019-03-10T10:18:23.255Z,37.67
2019-03-10T10:21:06.754Z,37.13
2019-03-10T10:23:47.579Z,33.55
2019-03-10T10:43:53.159Z,32.65
2019-03-10T10:46:26.038Z,33.55
2019-03-10T10:51:37.749Z,30.37
2019-03-10T10:54:21.186Z,26.70
2019-03-10T10:57:08.004Z,30.90
2019-03-10T10:59:36.988Z,30.05
2019-03-10T11:02:04.856Z,25.50
2019-03-10T11:04:49.211Z,29.63
2019-03-10T11:07:17.083Z,28.40
2019-03-10T11:12:14.705Z,28.92
2019-03-10T11:14:44.576Z,29.95
2019-03-10T11:27:31.866Z,29.60
2019-03-10T11:30:04.757Z,31.70
2019-03-10T11:32:31.908Z,29.17
2019-03-10T11:35:18.816Z,32.30
2019-03-10T11:37:47.040Z,34.58
2019-03-10T11:40:19.696Z,28.17
2019-03-10T11:43:01.682Z,28.73
2019-03-10T11:45:30.564Z,25.33
2019-03-10T11:48:16.146Z,28.50
2019-03-10T11:50:59.073Z,27.77
2019-03-10T11:58:40.081Z,24.03
2019-03-10T12:01:07.234Z,28.75
2019-03-10T12:03:40.019Z,23.07
2019-03-10T12:06:14.917Z,22.92
2019-03-10T12:16:04.575Z,23.27
2019-03-10T12:18:31.621Z,23.52
2019-03-10T12:20:58.567Z,27.42
2019-03-10T12:23:25.574Z,24.70
2019-03-10T12:25:52.671Z,21.15
2019-03-10T12:28:19.823Z,25.27
2019-03-10T12:30:46.973Z,21.50
2019-03-10T12:33:14.017Z,25.17
2019-03-10T12:35:41.985Z,24.33
2019-03-10T12:38:09.043Z,22.93
2019-03-10T12:40:36.084Z,25.75
2019-03-10T12:43:03.649Z,23.57
2019-03-10T12:45:30.695Z,27.70
2019-03-10T12:47:58.258Z,26.02
2019-03-10T12:50:27.452Z,26.85
2019-03-10T12:52:54.500Z,26.02
2019-03-10T12:55:21.993Z,22.30
2019-03-10T12:57:49.012Z,26.87
2019-03-10T13:05:09.235Z,26.60
2019-03-10T13:07:37.465Z,18.03
2019-03-10T13:10:06.245Z,28.47
2019-03-10T13:12:33.347Z,22.87
2019-03-10T13:15:00.519Z,26.90
2019-03-10T13:17:27.617Z,93.33
2019-03-10T13:19:54.798Z,20.97
2019-03-10T13:22:21.848Z,43.13
2019-03-10T13:24:48.908Z,39.73
2019-03-10T13:27:15.945Z,28.80
2019-03-10T13:32:09.432Z,27.40
2019-03-10T13:34:36.477Z,27.40
2019-03-10T13:37:03.524Z,29.05
2019-03-10T13:39:32.564Z,25.30
2019-03-10T13:41:59.670Z,25.67
2019-03-10T13:44:26.726Z,22.27
2019-03-10T13:46:53.828Z,26.73
2019-03-10T13:49:21.027Z,24.50
2019-03-10T13:51:48.495Z,26.48
2019-03-10T13:54:15.639Z,26.77
2019-03-10T13:56:42.884Z,22.40
2019-03-10T13:59:10.043Z,25.40
2019-03-10T14:01:37.090Z,26.40
2019-03-10T14:18:46.014Z,28.67
2019-03-10T14:21:13.134Z,27.45
2019-03-10T14:23:40.215Z,26.12
2019-03-10T14:28:33.905Z,27.00
2019-03-10T14:31:01.055Z,25.88
2019-03-10T14:33:28.206Z,25.05
2019-03-10T14:35:55.557Z,24.65
2019-03-10T14:40:49.045Z,27.80
2019-03-10T14:43:16.143Z,27.02
2019-03-10T14:48:09.778Z,27.37
2019-03-10T14:50:36.827Z,28.02
2019-03-10T14:53:04.684Z,25.80
2019-03-10T14:55:31.035Z,28.80
2019-03-10T14:57:58.562Z,25.00
2019-03-10T15:00:28.838Z,23.40
2019-03-10T15:10:26.963Z,28.90
2019-03-10T15:12:55.372Z,28.73
2019-03-10T15:15:25.036Z,30.27
2019-03-10T15:17:52.696Z,29.33
2019-03-10T15:25:15.993Z,31.17
2019-03-10T15:27:43.693Z,28.00
2019-03-10T15:30:12.529Z,29.70
2019-03-10T15:32:41.330Z,28.25
2019-03-10T15:47:33.670Z,28.90
2019-03-10T15:50:00.705Z,27.27
2019-03-10T15:52:31.235Z,27.83
2019-03-10T15:54:58.605Z,29.33
2019-03-10T15:57:26.277Z,28.85
2019-03-10T15:59:53.407Z,28.43
2019-03-10T16:02:21.277Z,23.30
2019-03-10T16:04:48.320Z,33.88
2019-03-10T16:07:15.376Z,51.65
2019-03-10T16:19:46.177Z,19.00
2019-03-10T16:22:14.352Z,24.52
2019-03-10T16:24:41.406Z,24.00
2019-03-10T16:27:08.461Z,19.60
2019-03-10T16:29:36.169Z,19.23
2019-03-10T16:32:03.266Z,20.67
2019-03-10T16:36:58.905Z,19.55
2019-03-10T16:39:26.056Z,20.93
2019-03-10T16:41:53.510Z,21.33
2019-03-10T16:44:20.768Z,23.12
2019-03-10T16:46:48.215Z,24.40
2019-03-10T17:16:10.858Z,23.70
2019-03-10T17:19:02.476Z,17.30
2019-03-10T17:21:30.248Z,14.60
2019-03-10T17:23:57.296Z,22.60
2019-03-10T17:26:25.673Z,20.23
2019-03-10T17:28:54.740Z,23.83
2019-03-10T17:31:23.953Z,24.20
2019-03-10T17:33:53.932Z,18.52
2019-03-10T17:36:21.148Z,20.35
2019-03-10T17:38:48.289Z,22.50
2019-03-10T17:41:15.857Z,20.25
2019-03-10T17:43:43.111Z,16.50
2019-03-10T17:46:10.355Z,19.42
2019-03-10T17:48:37.408Z,14.57
2019-03-10T17:51:05.452Z,14.93
2019-03-10T17:55:59.494Z,18.87
2019-03-10T17:58:28.370Z,17.53
2019-03-10T18:00:57.725Z,17.27
2019-03-10T18:03:24.822Z,17.45
2019-03-10T18:05:51.863Z,18.00
2019-03-10T18:08:18.932Z,18.77
2019-03-10T18:10:45.967Z,14.40
2019-03-10T18:13:13.009Z,13.57
2019-03-10T18:15:40.316Z,16.08
2019-03-10T18:18:07.311Z,13.80
2019-03-10T18:20:34.360Z,15.55
2019-03-10T18:23:01.414Z,17.52
2019-03-10T18:25:28.459Z,15.27
2019-03-10T18:28:19.336Z,17.77
2019-03-10T18:30:46.429Z,17.67
2019-03-10T18:33:13.424Z,12.33
2019-03-10T18:35:40.650Z,21.87
2019-03-10T18:38:07.778Z,15.73
2019-03-10T18:40:35.635Z,16.45
2019-03-10T18:53:03.675Z,16.03
2019-03-10T18:55:30.725Z,14.75
2019-03-10T18:57:58.635Z,21.20
2019-03-10T19:00:27.600Z,13.43
2019-03-10T19:02:54.633Z,27.83
2019-03-10T19:05:21.785Z,16.77
2019-03-10T19:07:49.244Z,14.10
2019-03-10T19:10:16.297Z,17.27
2019-03-10T19:12:43.356Z,10.67
2019-03-10T19:22:32.016Z,18.10
2019-03-10T19:24:59.069Z,20.20
2019-03-10T19:27:30.051Z,13.20
2019-03-10T19:29:54.215Z,18.63
2019-03-10T19:32:21.240Z,21.90
2019-03-10T19:34:49.542Z,16.53
2019-03-10T19:37:16.590Z,14.03
2019-03-10T19:39:43.644Z,11.20
2019-03-10T19:42:10.688Z,12.73
2019-03-10T19:44:37.897Z,11.17
2019-03-10T19:47:04.994Z,13.23
2019-03-10T19:49:32.142Z,13.63
2019-03-10T19:52:01.551Z,10.23
2019-03-10T19:54:30.290Z,15.47
2019-03-10T19:57:00.362Z,15.90
2019-03-10T19:59:28.015Z,12.73
2019-03-10T20:01:59.990Z,17.50
2019-03-10T20:04:29.194Z,17.87
2019-03-10T20:07:00.236Z,14.00
2019-03-10T20:09:55.451Z,13.37
2019-03-10T20:12:23.808Z,15.90
2019-03-10T20:14:51.070Z,16.17
2019-03-10T20:17:18.116Z,12.37
2019-03-10T20:19:45.876Z,14.83
2019-03-10T20:22:14.055Z,17.50
2019-03-10T20:24:41.098Z,11.23
2019-03-10T20:27:08.147Z,14.93
2019-03-10T20:29:35.202Z,13.73
2019-03-10T20:32:13.104Z,18.73
2019-03-10T20:34:29.908Z,14.77
2019-03-10T20:37:00.158Z,11.67
2019-03-10T20:39:28.114Z,15.90
2019-03-10T20:42:04.708Z,11.37
2019-03-10T20:44:23.999Z,17.30
2019-03-10T20:46:50.943Z,13.57
2019-03-10T20:49:18.001Z,14.23
2019-03-10T20:51:48.294Z,11.47
2019-03-10T20:54:17.158Z,12.90
2019-03-10T20:56:47.616Z,13.43
2019-03-10T20:59:18.491Z,16.20
2019-03-10T21:01:45.771Z,15.23
2019-03-10T21:04:17.445Z,14.83
2019-03-10T21:06:48.311Z,12.17
2019-03-10T21:09:37.739Z,12.53
2019-03-10T21:12:05.200Z,40.73
2019-03-10T21:14:35.413Z,28.00
2019-03-10T21:17:02.571Z,15.67
2019-03-10T21:19:29.830Z,14.77
2019-03-10T21:21:59.656Z,14.50
2019-03-10T21:24:26.646Z,75.33
2019-03-10T21:26:53.698Z,53.80
2019-03-10T21:29:21.634Z,14.10
2019-03-10T21:31:48.755Z,14.23
2019-03-10T21:34:15.905Z,13.13
2019-03-10T21:36:45.617Z,32.60
2019-03-10T21:39:12.666Z,21.20
2019-03-10T21:41:39.670Z,17.00
2019-03-10T21:44:06.762Z,18.33
2019-03-10T21:46:34.635Z,15.83
2019-03-10T21:49:01.635Z,18.97
2019-03-10T21:51:28.749Z,16.40
2019-03-10T21:53:55.781Z,20.53
2019-03-10T21:56:22.833Z,17.77
2019-03-10T21:58:49.873Z,15.70
2019-03-10T22:01:16.926Z,17.30
2019-03-10T22:03:43.975Z,13.50
2019-03-10T22:06:11.018Z,18.03
2019-03-10T22:08:38.016Z,15.23
2019-03-10T22:11:05.017Z,13.73
2019-03-10T22:13:32.120Z,15.33
2019-03-10T22:15:59.218Z,11.80
2019-03-10T22:18:26.279Z,13.97
2019-03-10T22:20:53.309Z,15.77
2019-03-10T22:23:20.305Z,12.60
2019-03-10T22:25:47.407Z,12.77
2019-03-10T22:28:14.455Z,14.90
2019-03-10T22:30:41.510Z,15.17
2019-03-10T22:33:08.554Z,12.80
2019-03-10T22:35:35.706Z,14.33
2019-03-10T22:38:02.751Z,17.23
2019-03-10T22:40:29.698Z,13.90
2019-03-10T22:42:56.759Z,14.70
2019-03-10T22:45:23.820Z,13.17
2019-03-10T22:47:50.847Z,17.37
2019-03-10T22:50:17.928Z,11.60
2019-03-10T22:52:45.043Z,13.77
2019-03-10T22:55:12.041Z,14.73
2019-03-10T22:57:39.140Z,16.03
2019-03-10T23:00:14.176Z,11.90
2019-03-10T23:02:43.478Z,13.27
2019-03-10T23:05:10.837Z,17.07
2019-03-10T23:07:37.911Z,11.63
2019-03-10T23:10:05.956Z,12.23
2019-03-10T23:12:33.003Z,11.73
2019-03-10T23:14:59.935Z,14.10
2019-03-10T23:17:28.022Z,15.07
2019-03-10T23:19:55.070Z,12.70
2019-03-10T23:22:22.125Z,12.97
2019-03-10T23:24:49.889Z,13.00
2019-03-10T23:27:16.934Z,13.03
2019-03-10T23:29:43.928Z,19.80
2019-03-10T23:32:12.361Z,16.37
2019-03-10T23:34:39.421Z,19.53
2019-03-10T23:37:06.461Z,16.93
2019-03-10T23:39:33.509Z,14.23
2019-03-10T23:42:00.561Z,13.30
2019-03-10T23:44:27.605Z,15.70
2019-03-10T23:46:55.269Z,16.17
2019-03-10T23:49:22.322Z,18.50
2019-03-10T23:51:49.364Z,17.63
2019-03-10T23:54:17.335Z,18.57
2019-03-10T23:56:44.390Z,14.07
2019-03-10T23:59:11.538Z,17.40
